TAF KCSM
KCSM 280520Z 2806/2906 35010KT P6SM SKC FM290000 19010KT P6SM SKC=
METAR KCSM
WC KCSM
WS KCSM
WV KCSM